KLAX/LAX METAR and TAF weather

Enter ICAO airport designator
Station Type Date Time Source
KLAX METAR 2022/06/27 17:53 UTC NOAA

KLAX 271753Z 26007KT 7SM SCT009 21/15 A3001 RMK AO2 SLP162 T02060150 10211 20167 50001


Station Type Date Time Source
KLAX Decoded METAR 2022/06/27 17:53 UTC NOAA

LOS ANGELES INTERNTL AIRPORT, CA, United States (KLAX) 33-56N 118-23W 46M
Jun 27, 2022 - 01:53 PM EDT / 2022.06.27 1753 UTC
Wind: from the W (260 degrees) at 8 MPH (7 KT):0
Visibility: 7 mile(s):0
Sky conditions: partly cloudy
Temperature: 69.1 F (20.6 C)
Dew Point: 59.0 F (15.0 C)
Relative Humidity: 70%
Pressure (altimeter): 30.01 in. Hg (1016 hPa)
Pressure tendency: 0.00 inches (0.1 hPa) higher than three hours ago
ob: KLAX 271753Z 26007KT 7SM SCT009 21/15 A3001 RMK AO2 SLP162 T02060150 10211 20167 50001
cycle: 18

Station Type Date Time Source
KLAX TAF 2022/06/27 18:24 UTC NOAA

TAF KLAX 271722Z 2718/2824 26006KT 6SM HZ SCT007
FM271900 26012KT P6SM SKC
FM280400 26006KT P6SM SKC
FM280800 VRB03KT 6SM BR BKN006
FM281200 VRB03KT 3SM BR OVC005
FM281600 26006KT 6SM HZ FEW006
FM282000 26012KT P6SM FEW006

Example: see airport list